createdAt,value
2022-10-18T00:00:45.222Z,46.9
2022-10-18T00:01:47.401Z,46.7
2022-10-18T00:02:49.311Z,46.5
2022-10-18T00:03:51.292Z,46.6
2022-10-18T00:04:53.231Z,46.9
2022-10-18T00:05:55.290Z,47.4
2022-10-18T00:06:57.272Z,47.7
2022-10-18T00:07:59.187Z,47.8
2022-10-18T00:09:01.211Z,47.7
2022-10-18T00:10:03.351Z,47.7
2022-10-18T00:11:05.230Z,47.5
2022-10-18T00:12:07.196Z,47.1
2022-10-18T00:13:09.311Z,46.8
2022-10-18T00:14:11.251Z,46.4
2022-10-18T00:15:13.233Z,46.2
2022-10-18T00:16:15.051Z,46.1
2022-10-18T00:17:16.052Z,46.3
2022-10-18T00:18:17.112Z,46.3
2022-10-18T00:19:18.086Z,46.5
2022-10-18T00:20:19.060Z,46.6
2022-10-18T00:21:20.044Z,46.7
2022-10-18T00:22:21.331Z,46.7
2022-10-18T00:23:23.373Z,46.7
2022-10-18T00:24:25.272Z,46.3
2022-10-18T00:25:27.311Z,46.4
2022-10-18T00:26:29.232Z,46.5
2022-10-18T00:27:31.272Z,46.5
2022-10-18T00:28:33.210Z,46.4
2022-10-18T00:29:35.258Z,46.6
2022-10-18T00:30:37.292Z,46.5
2022-10-18T00:31:39.751Z,46.3
2022-10-18T00:32:41.331Z,46.5
2022-10-18T00:33:43.350Z,46.7
2022-10-18T00:34:45.252Z,46.8
2022-10-18T00:35:47.276Z,46.7
2022-10-18T00:36:49.220Z,46.6
2022-10-18T00:37:51.297Z,45.7
2022-10-18T00:38:53.311Z,46.3
2022-10-18T00:39:55.256Z,46.6
2022-10-18T00:40:57.271Z,46.7
2022-10-18T00:41:59.052Z,46.8
2022-10-18T00:43:00.170Z,47
2022-10-18T00:44:02.332Z,47
2022-10-18T00:45:04.292Z,46.9
2022-10-18T00:46:06.312Z,47.3
2022-10-18T00:47:08.594Z,47.6
2022-10-18T00:48:10.235Z,47.6
2022-10-18T00:49:12.061Z,47.7
2022-10-18T00:50:13.031Z,48
2022-10-18T00:51:14.177Z,48
2022-10-18T00:52:16.151Z,47.9
2022-10-18T00:53:17.052Z,48.5
2022-10-18T00:54:18.131Z,48.6
2022-10-18T00:55:19.112Z,48.8
2022-10-18T00:56:20.094Z,48.8
2022-10-18T00:57:21.192Z,48.9
2022-10-18T00:58:23.374Z,48.8
2022-10-18T00:59:25.180Z,48.8
2022-10-18T01:00:27.281Z,49
2022-10-18T01:01:29.212Z,49.1
2022-10-18T01:02:31.650Z,48.9
2022-10-18T01:03:33.260Z,48.8
2022-10-18T01:04:35.035Z,48.7
2022-10-18T01:05:36.258Z,48.8
2022-10-18T01:06:38.292Z,48.9
2022-10-18T01:07:40.233Z,49
2022-10-18T01:08:42.374Z,48.8
2022-10-18T01:09:44.292Z,49
2022-10-18T01:10:46.233Z,49.1
2022-10-18T01:11:48.079Z,49.3
2022-10-18T01:12:49.188Z,49.7
2022-10-18T01:13:51.366Z,49.8
2022-10-18T01:14:53.252Z,50
2022-10-18T01:16:57.232Z,50.3
2022-10-18T01:17:59.097Z,50.5
2022-10-18T01:19:00.055Z,50.6
2022-10-18T01:20:01.133Z,50.7
2022-10-18T01:21:02.174Z,50.9
2022-10-18T01:22:03.111Z,50.5
2022-10-18T01:23:03.993Z,50.9
2022-10-18T01:24:05.179Z,50.9
2022-10-18T01:25:06.144Z,50.9
2022-10-18T01:26:07.097Z,50.9
2022-10-18T01:27:08.124Z,50.5
2022-10-18T01:28:09.294Z,51
2022-10-18T01:29:11.416Z,51.2
2022-10-18T01:30:13.334Z,51.1
2022-10-18T01:31:15.291Z,51.3
2022-10-18T01:32:17.436Z,51.4
2022-10-18T01:33:19.172Z,51.6
2022-10-18T01:34:21.381Z,51.5
2022-10-18T01:35:23.479Z,51.8
2022-10-18T01:36:25.112Z,51.9
2022-10-18T01:37:26.452Z,52.1
2022-10-18T01:38:28.267Z,52.2
2022-10-18T01:39:30.255Z,52.2
2022-10-18T01:40:32.331Z,52.3
2022-10-18T01:41:34.316Z,52.3
2022-10-18T01:42:36.332Z,52.5
2022-10-18T01:43:38.339Z,52.9
2022-10-18T01:44:40.287Z,53.2
2022-10-18T01:45:42.271Z,53.5
2022-10-18T01:46:44.471Z,53.7
2022-10-18T01:47:46.410Z,53.8
2022-10-18T01:48:48.473Z,53.8
2022-10-18T01:50:57.399Z,54.3
2022-10-18T01:51:59.435Z,54.5
2022-10-18T01:53:01.314Z,54.5
2022-10-18T01:54:03.131Z,54.4
2022-10-18T01:55:04.133Z,54.4
2022-10-18T01:56:05.134Z,54.3
2022-10-18T01:57:06.206Z,54.3
2022-10-18T01:58:07.153Z,54.4
2022-10-18T01:59:08.332Z,54.3
2022-10-18T02:00:10.417Z,54.4
2022-10-18T02:04:15.451Z,55.2
2022-10-18T02:05:17.451Z,55.3
2022-10-18T02:06:19.308Z,55.2
2022-10-18T02:07:21.232Z,55.2
2022-10-18T02:08:23.946Z,55.4
2022-10-18T02:09:25.491Z,55.6
2022-10-18T02:10:27.315Z,55.6
2022-10-18T02:11:29.172Z,55.6
2022-10-18T02:12:30.331Z,55.5
2022-10-18T02:13:31.431Z,55.3
2022-10-18T02:14:33.334Z,55.3
2022-10-18T02:15:35.497Z,55.4
2022-10-18T02:16:37.232Z,56
2022-10-18T02:17:39.371Z,56
2022-10-18T02:18:41.450Z,55.8
2022-10-18T02:19:43.433Z,56
2022-10-18T02:20:45.327Z,56
2022-10-18T02:21:47.252Z,55.7
2022-10-18T02:22:49.353Z,56.1
2022-10-18T02:23:51.411Z,56.1
2022-10-18T02:24:53.351Z,55.9
2022-10-18T02:25:55.334Z,55.6
2022-10-18T02:26:57.412Z,55.5
2022-10-18T02:27:59.211Z,55.6
2022-10-18T02:29:01.312Z,56.1
2022-10-18T02:30:03.412Z,56.5
2022-10-18T02:31:05.295Z,56.8
2022-10-18T02:32:07.232Z,56.9
2022-10-18T02:33:09.293Z,57
2022-10-18T02:34:11.092Z,56.6
2022-10-18T02:35:12.211Z,57
2022-10-18T02:36:13.091Z,57.3
2022-10-18T02:37:14.167Z,57.5
2022-10-18T02:38:15.093Z,57.5
2022-10-18T02:39:16.311Z,57.4
2022-10-18T02:40:18.352Z,57.5
2022-10-18T02:41:20.339Z,56.9
2022-10-18T02:42:22.352Z,57.3
2022-10-18T02:43:24.131Z,57.2
2022-10-18T02:44:25.131Z,57.1
2022-10-18T02:45:26.111Z,57.1
2022-10-18T02:47:28.247Z,56.6
2022-10-18T02:48:29.525Z,56.8
2022-10-18T02:49:31.372Z,56.7
2022-10-18T02:50:33.332Z,56.6
2022-10-18T02:51:35.332Z,56.8
2022-10-18T02:52:37.413Z,57.3
2022-10-18T02:53:39.352Z,57.3
2022-10-18T02:54:41.312Z,57.5
2022-10-18T02:55:43.312Z,57.6
2022-10-18T02:56:45.311Z,57.4
2022-10-18T02:57:47.335Z,57.3
2022-10-18T02:58:49.351Z,57.4
2022-10-18T02:59:51.361Z,57.8
2022-10-18T03:00:53.272Z,57.9
2022-10-18T03:01:55.253Z,57.7
2022-10-18T03:02:56.131Z,57.6
2022-10-18T03:03:57.134Z,57.7
2022-10-18T03:04:58.172Z,57.7
2022-10-18T03:05:59.152Z,57.8
2022-10-18T03:07:00.111Z,57.6
2022-10-18T03:08:01.256Z,57.5
2022-10-18T03:09:03.331Z,57.4
2022-10-18T03:10:05.346Z,57.3
2022-10-18T03:11:07.336Z,57.3
2022-10-18T03:12:09.252Z,57.4
2022-10-18T03:13:11.311Z,57.5
2022-10-18T03:14:13.392Z,57.4
2022-10-18T03:15:15.292Z,57.5
2022-10-18T03:16:17.293Z,57.3
2022-10-18T03:17:19.397Z,57.2
2022-10-18T03:18:21.151Z,57.4
2022-10-18T03:19:22.192Z,57.6
2022-10-18T03:20:23.212Z,57.7
2022-10-18T03:21:25.253Z,57.8
2022-10-18T03:23:29.311Z,57.8
2022-10-18T03:24:31.331Z,57.8
2022-10-18T03:25:33.192Z,58
2022-10-18T03:26:34.100Z,58.2
2022-10-18T03:27:35.351Z,57.6
2022-10-18T03:28:37.409Z,57.9
2022-10-18T03:29:39.311Z,58
2022-10-18T03:30:41.415Z,57.9
2022-10-18T03:31:43.335Z,58
2022-10-18T03:32:45.336Z,57.8
2022-10-18T03:33:47.331Z,57.7
2022-10-18T03:34:49.172Z,57.6
2022-10-18T03:35:50.304Z,57.6
2022-10-18T03:36:52.172Z,57.5
2022-10-18T03:37:53.271Z,57.5
2022-10-18T03:38:55.351Z,57.2
2022-10-18T03:39:57.291Z,57.4
2022-10-18T03:40:59.511Z,57.5
2022-10-18T03:42:01.479Z,57.6
2022-10-18T03:43:03.351Z,57.7
2022-10-18T03:44:05.262Z,57.5
2022-10-18T03:45:07.372Z,57.6
2022-10-18T03:46:09.414Z,57.8
2022-10-18T03:47:11.352Z,57.5
2022-10-18T03:48:13.335Z,57.7
2022-10-18T03:49:15.372Z,57.5
2022-10-18T03:50:17.401Z,57.3
2022-10-18T03:51:19.452Z,57.6
2022-10-18T03:52:21.459Z,57.6
2022-10-18T03:53:23.251Z,57.7
2022-10-18T03:54:25.312Z,57.6
2022-10-18T03:55:27.432Z,57.7
2022-10-18T03:56:29.431Z,57.9
2022-10-18T03:57:31.534Z,57.7
2022-10-18T03:59:35.492Z,57.7
2022-10-18T04:00:37.629Z,57.6
2022-10-18T04:01:39.369Z,57.5
2022-10-18T04:02:41.317Z,57.7
2022-10-18T04:03:43.457Z,57.6
2022-10-18T04:04:45.487Z,57.7
2022-10-18T04:05:47.455Z,57.7
2022-10-18T04:06:49.373Z,57.7
2022-10-18T04:07:51.452Z,57.4
2022-10-18T04:08:53.211Z,57.5
2022-10-18T04:09:54.458Z,57.5
2022-10-18T04:10:56.353Z,57.7
2022-10-18T04:11:58.332Z,57.8
2022-10-18T04:13:00.331Z,57.4
2022-10-18T04:14:02.262Z,57.9
2022-10-18T04:15:03.233Z,58.1
2022-10-18T04:16:04.192Z,57.9
2022-10-18T04:17:05.211Z,58
2022-10-18T04:18:06.287Z,58
2022-10-18T04:19:08.297Z,58.1
2022-10-18T04:20:10.387Z,58
2022-10-18T04:21:12.411Z,57.8
2022-10-18T04:22:14.393Z,57.9
2022-10-18T04:23:16.331Z,57.9
2022-10-18T04:24:18.374Z,58
2022-10-18T04:25:20.372Z,57.8
2022-10-18T04:26:22.390Z,58.1
2022-10-18T04:27:24.451Z,58
2022-10-18T04:28:26.469Z,58
2022-10-18T04:29:28.182Z,58
2022-10-18T04:30:29.211Z,57.8
2022-10-18T04:31:30.454Z,57.8
2022-10-18T04:32:32.376Z,57.9
2022-10-18T04:33:34.395Z,58.1
2022-10-18T04:34:36.531Z,58.2
2022-10-18T04:35:38.372Z,58
2022-10-18T04:36:40.812Z,58.1
2022-10-18T04:37:42.326Z,57.9
2022-10-18T04:38:44.371Z,57.9
2022-10-18T04:39:47.478Z,58
2022-10-18T04:40:48.262Z,57.8
2022-10-18T04:41:50.372Z,57.6
2022-10-18T04:42:52.292Z,57.5
2022-10-18T04:43:54.313Z,57.6
2022-10-18T04:44:56.391Z,57.6
2022-10-18T04:45:58.239Z,57.6
2022-10-18T04:46:59.235Z,57.7
2022-10-18T04:48:00.457Z,57.8
2022-10-18T04:49:02.191Z,57.7
2022-10-18T04:50:03.297Z,57.7
2022-10-18T04:51:04.272Z,57.8
2022-10-18T04:52:05.272Z,58
2022-10-18T04:53:06.374Z,58
2022-10-18T04:54:08.368Z,57.9
2022-10-18T04:55:10.320Z,57.9
2022-10-18T04:56:12.173Z,57.9
2022-10-18T04:57:13.239Z,58
2022-10-18T04:58:14.213Z,58
2022-10-18T04:59:15.272Z,58.1
2022-10-18T05:00:16.212Z,57.9
2022-10-18T05:01:17.360Z,57.8
2022-10-18T05:02:19.192Z,57.9
2022-10-18T05:03:20.234Z,57.8
2022-10-18T05:04:21.262Z,57.8
2022-10-18T05:05:23.191Z,57.8
2022-10-18T05:06:23.212Z,57.7
2022-10-18T05:07:24.192Z,57.7
2022-10-18T05:08:25.251Z,57.9
2022-10-18T05:09:26.193Z,57.8
2022-10-18T05:10:27.197Z,57.9
2022-10-18T05:11:28.204Z,57.9
2022-10-18T05:12:29.259Z,58.1
2022-10-18T05:13:30.241Z,58.2
2022-10-18T05:14:31.192Z,58
2022-10-18T05:15:32.273Z,58.2
2022-10-18T05:16:33.203Z,58.4
2022-10-18T05:17:34.272Z,58.8
2022-10-18T05:18:35.386Z,59.1
2022-10-18T05:19:37.322Z,59.2
2022-10-18T05:20:39.525Z,59.1
2022-10-18T05:21:41.711Z,59.1
2022-10-18T05:22:43.391Z,58.9
2022-10-18T05:23:45.402Z,58.7
2022-10-18T05:24:47.452Z,58.5
2022-10-18T05:25:49.352Z,58.4
2022-10-18T05:26:51.401Z,58.4
2022-10-18T05:27:53.273Z,58.2
2022-10-18T05:28:54.439Z,58.2
2022-10-18T05:29:57.151Z,58.2
2022-10-18T05:30:58.366Z,58.3
2022-10-18T05:32:00.373Z,58.3
2022-10-18T05:33:02.531Z,58.3
2022-10-18T05:34:04.492Z,58.4
2022-10-18T05:35:06.461Z,58.5
2022-10-18T05:36:08.376Z,58.5
2022-10-18T05:37:10.452Z,58.4
2022-10-18T05:38:12.411Z,58.5
2022-10-18T05:39:14.472Z,58.6
2022-10-18T05:40:16.410Z,58.8
2022-10-18T05:41:18.468Z,59.2
2022-10-18T05:42:20.372Z,59.6
2022-10-18T05:43:22.386Z,59.5
2022-10-18T05:44:24.392Z,59.7
2022-10-18T05:45:26.474Z,59.7
2022-10-18T05:46:28.398Z,59.8
2022-10-18T05:47:30.465Z,59.8
2022-10-18T05:48:32.532Z,59.7
2022-10-18T05:49:34.594Z,59.7
2022-10-18T05:50:38.029Z,59.9
2022-10-18T05:51:37.296Z,59.9
2022-10-18T05:52:38.356Z,59.9
2022-10-18T05:53:40.372Z,59.6
2022-10-18T05:54:42.512Z,59.8
2022-10-18T05:55:44.393Z,59.7
2022-10-18T05:56:46.393Z,59.6
2022-10-18T05:57:48.372Z,59.4
2022-10-18T05:58:50.466Z,59.3
2022-10-18T05:59:52.471Z,59.3
2022-10-18T06:00:54.491Z,59.3
2022-10-18T06:01:56.394Z,59.2
2022-10-18T06:02:59.504Z,59.1
2022-10-18T06:04:00.471Z,59
2022-10-18T06:05:02.571Z,59
2022-10-18T06:06:04.451Z,59
2022-10-18T06:07:06.495Z,58.9
2022-10-18T06:08:10.179Z,58.9
2022-10-18T06:09:10.412Z,58.8
2022-10-18T06:10:12.372Z,58.8
2022-10-18T06:11:14.264Z,58.6
2022-10-18T06:12:15.312Z,58.3
2022-10-18T06:13:16.312Z,58.1
2022-10-18T06:14:17.252Z,57.7
2022-10-18T06:15:18.359Z,57.6
2022-10-18T06:16:20.614Z,57.3
2022-10-18T06:17:22.520Z,57.1
2022-10-18T06:18:24.431Z,56.9
2022-10-18T06:19:26.471Z,56.6
2022-10-18T06:20:28.520Z,56.4
2022-10-18T06:21:30.272Z,56.2
2022-10-18T06:22:31.281Z,56.2
2022-10-18T06:23:32.292Z,56.3
2022-10-18T06:24:33.328Z,56.2
2022-10-18T06:25:34.313Z,55.7
2022-10-18T06:26:35.340Z,55.6
2022-10-18T06:27:36.271Z,55.5
2022-10-18T06:28:37.391Z,55.5
2022-10-18T06:29:38.420Z,55.2
2022-10-18T06:30:40.513Z,55.2
2022-10-18T06:31:42.412Z,55
2022-10-18T06:32:44.774Z,54.6
2022-10-18T06:33:46.453Z,54.5
2022-10-18T06:34:48.451Z,54.4
2022-10-18T06:35:50.472Z,54.1
2022-10-18T06:36:56.218Z,54
2022-10-18T06:37:53.402Z,53.7
2022-10-18T06:38:55.513Z,53.8
2022-10-18T06:39:57.370Z,53.6
2022-10-18T06:40:59.435Z,53.5
2022-10-18T06:42:01.477Z,53
2022-10-18T06:43:16.473Z,53.1
2022-10-18T06:44:05.272Z,53.6
2022-10-18T06:45:06.387Z,53.9
2022-10-18T06:46:08.524Z,53.7
2022-10-18T06:47:10.539Z,53.8
2022-10-18T06:48:12.601Z,54
2022-10-18T06:49:15.361Z,53.8
2022-10-18T06:50:16.540Z,54.2
2022-10-18T06:51:18.481Z,54.3
2022-10-18T06:52:20.239Z,53.9
2022-10-18T06:53:21.414Z,53.8
2022-10-18T06:54:23.619Z,53.3
2022-10-18T06:55:25.541Z,53.7
2022-10-18T06:56:27.498Z,53.3
2022-10-18T06:57:29.459Z,53.1
2022-10-18T06:58:31.639Z,52.8
2022-10-18T06:59:33.498Z,52.9
2022-10-18T07:00:35.387Z,52.8
2022-10-18T07:01:37.541Z,52.2
2022-10-18T07:02:39.364Z,52.6
2022-10-18T07:03:41.822Z,52.5
2022-10-18T07:04:43.499Z,52.6
2022-10-18T07:05:45.440Z,52.5
2022-10-18T07:06:47.459Z,52.6
2022-10-18T07:07:51.742Z,52.6
2022-10-18T07:08:51.984Z,52.8
2022-10-18T07:09:53.559Z,52.9
2022-10-18T07:10:55.626Z,52.8
2022-10-18T07:11:57.478Z,52.6
2022-10-18T07:13:19.899Z,52.7
2022-10-18T07:14:00.581Z,52.5
2022-10-18T07:15:05.600Z,52.6
2022-10-18T07:16:04.394Z,52.8
2022-10-18T07:17:06.460Z,52.6
2022-10-18T07:18:08.439Z,52.7
2022-10-18T07:19:10.579Z,52.7
2022-10-18T07:20:12.518Z,52.6
2022-10-18T07:21:14.460Z,52.1
2022-10-18T07:22:16.600Z,52
2022-10-18T07:23:18.559Z,52.1
2022-10-18T07:24:20.550Z,51.9
2022-10-18T07:25:23.881Z,51.8
2022-10-18T07:26:24.491Z,51.9
2022-10-18T07:27:26.499Z,51.8
2022-10-18T07:28:28.399Z,51.7
2022-10-18T07:29:29.369Z,52
2022-10-18T07:30:30.338Z,51.7
2022-10-18T07:31:31.402Z,52.7
2022-10-18T07:32:33.560Z,52.6
2022-10-18T07:33:35.386Z,52.6
2022-10-18T07:34:37.639Z,52.5
2022-10-18T07:35:39.501Z,52.8
2022-10-18T07:36:41.958Z,52.9
2022-10-18T07:37:43.518Z,53.4
2022-10-18T07:38:45.468Z,53.5
2022-10-18T07:39:47.553Z,53.9
2022-10-18T07:40:49.444Z,54.3
2022-10-18T07:41:51.559Z,54
2022-10-18T07:42:53.341Z,54
2022-10-18T07:43:54.294Z,54.2
2022-10-18T07:44:55.538Z,54.6
2022-10-18T07:45:57.598Z,54.7
2022-10-18T07:46:59.558Z,55
2022-10-18T07:48:01.580Z,54.1
2022-10-18T07:49:03.599Z,54.7
2022-10-18T07:50:05.680Z,54.7
2022-10-18T07:51:07.502Z,54.6
2022-10-18T07:52:09.538Z,54.4
2022-10-18T07:53:11.619Z,54.7
2022-10-18T07:54:13.538Z,54.8
2022-10-18T07:55:15.603Z,55
2022-10-18T07:56:17.619Z,54.9
2022-10-18T07:57:19.472Z,55
2022-10-18T07:58:21.700Z,55.2
2022-10-18T07:59:23.698Z,55.2
2022-10-18T08:00:25.579Z,54
2022-10-18T08:01:27.905Z,53.3
2022-10-18T08:02:29.520Z,53.6
2022-10-18T08:03:31.511Z,53.4
2022-10-18T08:04:33.334Z,53
2022-10-18T08:05:34.513Z,53.2
2022-10-18T08:06:36.598Z,53.9
2022-10-18T08:07:38.399Z,53.9
2022-10-18T08:08:39.354Z,53.5
2022-10-18T08:09:40.579Z,53.4
2022-10-18T08:10:43.052Z,54.4
2022-10-18T08:11:44.512Z,52.9
2022-10-18T08:12:46.600Z,51.8
2022-10-18T08:13:48.657Z,51.5
2022-10-18T08:14:50.599Z,51.5
2022-10-18T08:15:52.541Z,51.7
2022-10-18T08:16:54.540Z,51.6
2022-10-18T08:17:56.578Z,51.2
2022-10-18T08:18:58.539Z,50.7
2022-10-18T08:20:11.269Z,50.5
2022-10-18T08:21:02.599Z,50.8
2022-10-18T08:22:04.598Z,50.8
2022-10-18T08:23:06.599Z,50.6
2022-10-18T08:24:08.658Z,50.3
2022-10-18T08:25:10.568Z,50.1
2022-10-18T08:26:12.603Z,50
2022-10-18T08:27:14.559Z,50.5
2022-10-18T08:28:16.558Z,50.8
2022-10-18T08:29:23.131Z,50.3
2022-10-18T08:30:20.680Z,50.4
2022-10-18T08:31:22.561Z,51.1
2022-10-18T08:32:24.466Z,51.4
2022-10-18T08:33:26.538Z,50.6
2022-10-18T08:34:28.626Z,49.6
2022-10-18T08:35:30.408Z,49.1
2022-10-18T08:36:31.508Z,49.2
2022-10-18T08:37:33.742Z,48.6
2022-10-18T08:38:34.378Z,48.4
2022-10-18T08:39:35.559Z,47.9
2022-10-18T08:40:37.770Z,48.4
2022-10-18T08:41:39.498Z,48.5
2022-10-18T08:42:41.498Z,48.5
2022-10-18T08:43:43.648Z,48.7
2022-10-18T08:44:45.499Z,48.7
2022-10-18T08:45:47.618Z,49.6
2022-10-18T08:46:49.379Z,49.6
2022-10-18T08:47:50.339Z,49.2
2022-10-18T08:48:51.359Z,49.2
2022-10-18T08:49:52.492Z,48.8
2022-10-18T08:50:54.678Z,47.3
2022-10-18T08:51:56.552Z,47.1
2022-10-18T08:52:58.619Z,46.2
2022-10-18T08:54:00.510Z,46.1
2022-10-18T08:55:02.625Z,46.1
2022-10-18T08:56:04.522Z,46.2
2022-10-18T08:57:06.646Z,45
2022-10-18T08:58:08.668Z,44.9
2022-10-18T08:59:10.560Z,44.8
2022-10-18T09:00:12.599Z,43.9
2022-10-18T09:01:14.571Z,45.2
2022-10-18T09:02:16.579Z,45.3
2022-10-18T09:03:18.650Z,46
2022-10-18T09:04:20.505Z,46.5
2022-10-18T09:05:22.540Z,46.1
2022-10-18T09:06:24.592Z,45.6
2022-10-18T09:07:26.539Z,45.1
2022-10-18T09:08:28.519Z,45.8
2022-10-18T09:09:30.558Z,45.8
2022-10-18T09:10:32.358Z,45.7
2022-10-18T09:11:33.418Z,44.5
2022-10-18T09:12:34.559Z,44.1
2022-10-18T09:13:35.478Z,44.6
2022-10-18T09:14:37.459Z,44.7
2022-10-18T09:15:39.675Z,45.5
2022-10-18T09:16:44.739Z,45.1
2022-10-18T09:17:46.739Z,46.2
2022-10-18T09:18:48.660Z,45.8
2022-10-18T09:19:50.650Z,45.8
2022-10-18T09:20:52.699Z,46.2
2022-10-18T09:21:54.615Z,45.7
2022-10-18T09:22:56.639Z,45.5
2022-10-18T09:23:58.618Z,45.3
2022-10-18T09:25:00.658Z,45.4
2022-10-18T09:26:02.478Z,45.3
2022-10-18T09:27:04.660Z,45.8
2022-10-18T09:28:06.802Z,46.8
2022-10-18T09:29:08.675Z,46.8
2022-10-18T09:30:10.678Z,45.7
2022-10-18T09:31:12.599Z,45.5
2022-10-18T09:32:14.629Z,46.3
2022-10-18T09:33:16.367Z,45.5
2022-10-18T09:34:17.379Z,45.7
2022-10-18T09:35:18.519Z,45
2022-10-18T09:36:20.611Z,44.6
2022-10-18T09:37:22.608Z,44.1
2022-10-18T09:39:26.599Z,43.9
2022-10-18T09:40:28.665Z,43.4
2022-10-18T09:41:30.618Z,44
2022-10-18T09:42:32.950Z,44.2
2022-10-18T09:43:34.666Z,43.2
2022-10-18T09:44:36.565Z,44
2022-10-18T09:45:38.726Z,43.3
2022-10-18T09:46:40.647Z,43.7
2022-10-18T09:47:42.618Z,43.5
2022-10-18T09:48:44.600Z,43.2
2022-10-18T09:49:46.647Z,42.8
2022-10-18T09:50:48.659Z,42.8
2022-10-18T09:51:50.518Z,43.4
2022-10-18T09:52:52.405Z,44.3
2022-10-18T09:53:53.437Z,44.8
2022-10-18T09:54:55.618Z,44.6
2022-10-18T09:55:57.720Z,44.1
2022-10-18T09:56:59.680Z,44.3
2022-10-18T09:58:01.695Z,44.2
2022-10-18T09:59:03.683Z,44.5
2022-10-18T10:00:05.783Z,44
2022-10-18T10:01:07.653Z,43.7
2022-10-18T10:02:09.754Z,43.7
2022-10-18T10:03:11.682Z,44.9
2022-10-18T10:04:13.620Z,45.6
2022-10-18T10:05:15.611Z,45.1
2022-10-18T10:06:17.618Z,44.1
2022-10-18T10:07:19.638Z,43.6
2022-10-18T10:08:21.620Z,43.8
2022-10-18T10:09:23.620Z,43.9
2022-10-18T10:10:25.539Z,44
2022-10-18T10:11:27.638Z,44.2
2022-10-18T10:12:29.678Z,45.1
2022-10-18T10:13:31.678Z,44.8
2022-10-18T10:14:33.683Z,44.9
2022-10-18T10:15:37.178Z,45.3
2022-10-18T10:16:37.599Z,46.4
2022-10-18T10:17:39.738Z,45.6
2022-10-18T10:18:41.499Z,45.7
2022-10-18T10:19:43.460Z,45.8
2022-10-18T10:20:44.353Z,45.6
2022-10-18T10:21:45.488Z,44.4
2022-10-18T10:22:47.818Z,44
2022-10-18T10:23:49.678Z,44.3
2022-10-18T10:24:51.618Z,43.6
2022-10-18T10:25:53.640Z,42.6
2022-10-18T10:26:55.519Z,42.6
2022-10-18T10:27:57.651Z,42.5
2022-10-18T10:28:59.810Z,42.7
2022-10-18T10:30:06.692Z,42.9
2022-10-18T10:31:03.620Z,43.5
2022-10-18T10:32:05.719Z,43.7
2022-10-18T10:33:07.599Z,43.9
2022-10-18T10:34:09.618Z,43.5
2022-10-18T10:35:14.395Z,42.8
2022-10-18T10:36:13.579Z,43
2022-10-18T10:37:15.638Z,43.3
2022-10-18T10:38:17.589Z,43.7
2022-10-18T10:39:19.678Z,44.4
2022-10-18T10:40:24.020Z,44.6
2022-10-18T10:41:23.673Z,45.3
2022-10-18T10:42:25.689Z,47.3
2022-10-18T10:43:42.591Z,46.1
2022-10-18T10:44:29.579Z,46.6
2022-10-18T10:45:31.668Z,46.5
2022-10-18T10:46:33.659Z,45.8
2022-10-18T10:47:35.407Z,46.1
2022-10-18T10:48:36.745Z,46.2
2022-10-18T10:49:40.504Z,46.2
2022-10-18T10:50:40.641Z,45.4
2022-10-18T10:51:42.539Z,44.9
2022-10-18T10:52:44.667Z,44.9
2022-10-18T10:53:46.622Z,45.4
2022-10-18T10:54:51.474Z,45.3
2022-10-18T10:55:50.440Z,45.9
2022-10-18T10:56:51.419Z,46
2022-10-18T10:57:52.466Z,44.8
2022-10-18T10:58:53.519Z,44.8
2022-10-18T10:59:54.499Z,45.4
2022-10-18T11:00:56.684Z,45.9
2022-10-18T11:01:58.601Z,46.8
2022-10-18T11:03:06.123Z,46.7
2022-10-18T11:04:02.807Z,46
2022-10-18T11:05:04.747Z,46.2
2022-10-18T11:06:06.718Z,46.6
2022-10-18T11:07:08.727Z,46.8
2022-10-18T11:08:10.624Z,46.9
2022-10-18T11:09:12.682Z,47.5
2022-10-18T11:10:14.727Z,48
2022-10-18T11:11:18.037Z,47.8
2022-10-18T11:12:18.699Z,46.6
2022-10-18T11:13:20.740Z,46.7
2022-10-18T11:14:26.773Z,47.3
2022-10-18T11:15:24.659Z,46.6
2022-10-18T11:16:26.827Z,46.6
2022-10-18T11:17:28.739Z,46.1
2022-10-18T11:18:30.699Z,45.2
2022-10-18T11:19:32.718Z,45
2022-10-18T11:20:34.442Z,45.1
2022-10-18T11:21:35.426Z,45.4
2022-10-18T11:22:36.481Z,46.8
2022-10-18T11:23:37.439Z,46.9
2022-10-18T11:24:38.378Z,46.7
2022-10-18T11:25:39.506Z,46.2
2022-10-18T11:26:41.039Z,46.5
2022-10-18T11:27:42.759Z,47.2
2022-10-18T11:28:44.688Z,47.6
2022-10-18T11:29:46.781Z,48
2022-10-18T11:30:48.680Z,48.1
2022-10-18T11:31:50.723Z,48.1
2022-10-18T11:32:52.747Z,47.9
2022-10-18T11:34:08.558Z,47.7
2022-10-18T11:34:56.739Z,47.3
2022-10-18T11:36:02.908Z,47.1
2022-10-18T11:37:22.819Z,46.7
2022-10-18T11:38:02.906Z,47.2
2022-10-18T11:39:04.587Z,46.4
2022-10-18T11:40:06.657Z,46.4
2022-10-18T11:41:08.639Z,47.3
2022-10-18T11:42:10.679Z,47
2022-10-18T11:43:12.758Z,47.4
2022-10-18T11:44:14.601Z,47.3
2022-10-18T11:45:16.723Z,47.3
2022-10-18T11:46:18.621Z,46.9
2022-10-18T11:47:20.824Z,46.3
2022-10-18T11:48:22.656Z,46.4
2022-10-18T11:49:24.706Z,46.5
2022-10-18T11:50:26.669Z,46.4
2022-10-18T11:51:33.804Z,46
2022-10-18T11:52:30.698Z,45.6
2022-10-18T11:53:32.650Z,46.3
2022-10-18T11:54:34.758Z,45
2022-10-18T11:55:36.660Z,44.4
2022-10-18T11:56:38.598Z,45.1
2022-10-18T11:57:40.698Z,44.6
2022-10-18T11:58:42.860Z,45.5
2022-10-18T11:59:44.739Z,46.2
2022-10-18T12:00:46.699Z,45.4
2022-10-18T12:01:48.698Z,45.5
2022-10-18T12:02:50.894Z,45.1
2022-10-18T12:03:52.635Z,45.4
2022-10-18T12:05:18.844Z,45.4
2022-10-18T12:05:56.647Z,45.9
2022-10-18T12:06:58.759Z,46.3
2022-10-18T12:08:00.702Z,46.2
2022-10-18T12:09:02.760Z,45.8
2022-10-18T12:10:04.742Z,46
2022-10-18T12:11:07.017Z,45.9
2022-10-18T12:12:08.702Z,45.7
2022-10-18T12:13:10.459Z,46.1
2022-10-18T12:14:11.459Z,46.5
2022-10-18T12:15:12.559Z,46.2
2022-10-18T12:16:14.678Z,45.7
2022-10-18T12:18:18.744Z,45.4
2022-10-18T12:19:25.368Z,45
2022-10-18T12:20:25.480Z,44.9
2022-10-18T12:21:26.499Z,44.8
2022-10-18T12:22:27.519Z,45.5
2022-10-18T12:23:28.493Z,45.3
2022-10-18T12:24:29.407Z,45.1
2022-10-18T12:25:30.466Z,45.5
2022-10-18T12:26:31.479Z,45
2022-10-18T12:27:32.522Z,44.5
2022-10-18T12:28:33.600Z,44.7
2022-10-18T12:29:35.819Z,45.5
2022-10-18T12:30:37.691Z,45.6
2022-10-18T12:31:39.631Z,45.7
2022-10-18T12:32:51.422Z,44.8
2022-10-18T12:33:44.104Z,46.2
2022-10-18T12:34:45.706Z,45.1
2022-10-18T12:35:47.678Z,45.2
2022-10-18T12:36:49.619Z,44.8
2022-10-18T12:37:51.619Z,44.6
2022-10-18T12:38:53.484Z,44.5
2022-10-18T12:40:09.642Z,43.9
2022-10-18T12:40:56.483Z,43.9
2022-10-18T12:41:57.560Z,43.4
2022-10-18T12:42:58.439Z,43.2
2022-10-18T12:43:59.494Z,42.9
2022-10-18T12:45:00.539Z,43.5
2022-10-18T12:46:01.439Z,43.7
2022-10-18T12:47:02.479Z,44.1
2022-10-18T12:48:03.506Z,44.1
2022-10-18T12:49:04.474Z,44.4
2022-10-18T12:50:05.575Z,44.6
2022-10-18T12:51:07.798Z,44.8
2022-10-18T12:52:09.698Z,44.9
2022-10-18T12:53:11.638Z,44.8
2022-10-18T12:54:13.764Z,44.8
2022-10-18T12:55:16.861Z,43.9
2022-10-18T12:56:19.023Z,44.7
2022-10-18T12:57:19.699Z,44.7
2022-10-18T12:58:21.739Z,44.2
2022-10-18T12:59:23.709Z,44.4
2022-10-18T13:00:25.600Z,44.3
2022-10-18T13:01:27.832Z,44.9
2022-10-18T13:02:29.726Z,43.9
2022-10-18T13:03:31.739Z,44.3
2022-10-18T13:04:33.582Z,43
2022-10-18T13:05:48.697Z,42.7
2022-10-18T13:06:37.718Z,43.3
2022-10-18T13:07:39.764Z,43.1
2022-10-18T13:08:41.700Z,42.9
2022-10-18T13:09:44.139Z,43.3
2022-10-18T13:10:45.598Z,43.2
2022-10-18T13:11:47.881Z,43.7
2022-10-18T13:12:49.725Z,43.5
2022-10-18T13:13:51.679Z,43.1
2022-10-18T13:14:59.445Z,42.9
2022-10-18T13:15:55.727Z,42.4
2022-10-18T13:16:57.764Z,42.5
2022-10-18T13:17:59.766Z,43.3
2022-10-18T13:19:01.664Z,43.3
2022-10-18T13:20:24.384Z,42.5
2022-10-18T13:21:05.678Z,42.3
2022-10-18T13:22:07.780Z,42.4
2022-10-18T13:23:09.893Z,41.1
2022-10-18T13:24:11.636Z,40.1
2022-10-18T13:25:13.578Z,40.1
2022-10-18T13:26:15.698Z,40.7
2022-10-18T13:27:34.803Z,41.7
2022-10-18T13:28:19.599Z,42
2022-10-18T13:29:21.719Z,42.5
2022-10-18T13:30:23.740Z,41.2
2022-10-18T13:31:25.814Z,41
2022-10-18T13:32:27.671Z,40.9
2022-10-18T13:33:29.518Z,40.4
2022-10-18T13:34:30.480Z,40.5
2022-10-18T13:35:31.572Z,40.8
2022-10-18T13:36:32.588Z,40.9
2022-10-18T13:37:34.661Z,40.9
2022-10-18T13:38:36.759Z,41.3
2022-10-18T13:39:38.668Z,41.9
2022-10-18T13:40:40.719Z,42.2
2022-10-18T13:41:42.580Z,42.3
2022-10-18T13:42:44.062Z,42.7
2022-10-18T13:43:48.911Z,43
2022-10-18T13:44:47.661Z,42.4
2022-10-18T13:45:49.679Z,42.2
2022-10-18T13:46:51.719Z,42.5
2022-10-18T13:47:53.760Z,42.5
2022-10-18T13:48:55.659Z,43.2
2022-10-18T13:49:59.537Z,43.5
2022-10-18T13:50:59.822Z,42.4
2022-10-18T13:52:01.731Z,42.3
2022-10-18T13:53:03.718Z,43
2022-10-18T13:54:05.758Z,43
2022-10-18T13:55:07.654Z,42.9
2022-10-18T13:56:09.739Z,42.7
2022-10-18T13:57:11.659Z,42.5
2022-10-18T13:58:13.859Z,42.7